Skiff — 5VCS7 — position and weather

sailwx.info

Track history (hours):
 
Tides and Currents Weather Stations Pressure Air Temp Water Temp Dewpoint Dewpoint Depression Visibility Wind Speed Wind Dir Waves Ship Positions

Skiff

Last reported at 2018-Aug-17 23:32 UTC. Time now 2018-Aug-19 22:54 UTC.
Position N 43°21' E 028°35'.

Length 84 m; draft 5.6 m.

Type: Cargo ship. MMSI: 671480000.

Date/timePositionNaut miles runAvg speedWind from/ knotsBaromVisibWave heightAir tempDewpointWater temp
2018-Aug-17 23:32N 43°21' E 028°35'1 8.6
2018-Aug-17 23:26N 43°21' E 028°36'4 8.3
2018-Aug-17 23:01N 43°21' E 028°41'4 8.3
2018-Aug-17 22:30N 43°22' E 028°47'4 8.4
2018-Aug-17 22:00N 43°24' E 028°52'4 8.4
2018-Aug-17 21:30N 43°26' E 028°57'4 8.4
2018-Aug-17 21:01N 43°28' E 029°02'4 8.5
2018-Aug-17 20:30N 43°29' E 029°08'4 8.5
2018-Aug-17 20:00N 43°31' E 029°13'4 8.6
2018-Aug-17 19:30N 43°33' E 029°18'4 8.5
2018-Aug-17 19:00N 43°35' E 029°24'4 8.5
2018-Aug-17 18:30N 43°37' E 029°29'4 8.5
2018-Aug-17 18:00N 43°38' E 029°34'4 8.6
2018-Aug-17 17:31N 43°40' E 029°39'4 8.6
2018-Aug-17 17:01N 43°42' E 029°45'4 8.6
2018-Aug-17 16:30N 43°44' E 029°50'4 8.7
2018-Aug-17 16:00N 43°46' E 029°56'4 8.8
2018-Aug-17 15:30N 43°48' E 030°01'4 8.8
2018-Aug-17 15:01N 43°50' E 030°07'9 8.9
2018-Aug-17 14:00N 43°53' E 030°18'5 8.8
2018-Aug-17 13:27N 43°55' E 030°25'4 8.9
2018-Aug-17 13:00N 43°56' E 030°30'9 8.7
2018-Aug-17 12:01N 43°57' E 030°42'0 9.4
2018-Aug-17 12:01N 43°57' E 030°42'4 8.5
2018-Aug-17 11:30N 43°58' E 030°47'4 8.4
2018-Aug-17 11:00N 43°58' E 030°53'4 8.6
2018-Aug-17 10:30N 43°58' E 030°59'4 8.6
2018-Aug-17 10:00N 43°58' E 031°05'4 8.7
2018-Aug-17 09:30N 43°58' E 031°11'5 8.8
2018-Aug-17 08:59N 43°58' E 031°18'4 8.8
2018-Aug-17 08:30N 43°58' E 031°24'4 8.7
2018-Aug-17 08:00N 43°58' E 031°29'4 8.6
2018-Aug-17 07:30N 43°58' E 031°35'4 8.5
2018-Aug-17 07:00N 43°58' E 031°41'16 8.6
2018-Aug-17 05:09N 43°58' E 032°03'2 8.7
2018-Aug-17 04:56N 43°58' E 032°06'4 8.7
2018-Aug-17 04:30N 43°58' E 032°11'5 8.7
2018-Aug-17 03:59N 43°58' E 032°18'4 8.7
2018-Aug-17 03:31N 43°58' E 032°23'4 8.8
2018-Aug-17 03:01N 43°57' E 032°29'4 8.9
2018-Aug-17 02:30N 43°57' E 032°36'5 8.9
2018-Aug-17 01:59N 43°57' E 032°42'4 9.0
2018-Aug-17 01:30N 43°57' E 032°48'4 8.9
2018-Aug-17 01:00N 43°57' E 032°54'4 8.9
2018-Aug-17 00:30N 43°56' E 033°00'5 8.7
2018-Aug-16 23:58N 43°56' E 033°07'159 8.4
2018-Aug-16 05:08N 44°12' E 036°47'33 8.3
2018-Aug-16 01:10N 44°28' E 037°26'2 8.9
2018-Aug-16 00:55N 44°29' E 037°29'5 9.3
2018-Aug-16 00:24N 44°31' E 037°35'4 9.5
2018-Aug-16 00:00N 44°32' E 037°40'4 8.8
2018-Aug-15 23:30N 44°35' E 037°45'4 8.4
2018-Aug-15 23:00N 44°38' E 037°49'3 6.0
2018-Aug-15 22:30N 44°41' E 037°50'3 6.9
2018-Aug-15 22:00N 44°44' E 037°47'0 0.2
2018-Aug-15 21:28N 44°44' E 037°48'0 0.0
2018-Aug-15 20:58N 44°44' E 037°48'0 0.0
2018-Aug-15 20:28N 44°44' E 037°48'0 0.0
2018-Aug-15 19:58N 44°44' E 037°48'0 0.0
2018-Aug-15 19:28N 44°44' E 037°48'0 0.0
2018-Aug-15 18:58N 44°44' E 037°48'0 0.0
2018-Aug-15 18:28N 44°44' E 037°48'0 0.0
2018-Aug-15 17:58N 44°44' E 037°48'0 0.0
2018-Aug-15 17:28N 44°44' E 037°48'0 0.1
2018-Aug-15 16:58N 44°44' E 037°48'0 0.0
2018-Aug-15 16:28N 44°44' E 037°48'0 0.0
2018-Aug-15 15:58N 44°44' E 037°48'0 0.0
2018-Aug-15 15:28N 44°44' E 037°48'0 0.0
2018-Aug-15 14:58N 44°44' E 037°48'0 0.0
2018-Aug-15 14:28N 44°44' E 037°48'0 0.0
2018-Aug-15 13:58N 44°44' E 037°48'0 0.0
2018-Aug-15 13:28N 44°44' E 037°48'0 0.0
2018-Aug-15 12:58N 44°44' E 037°48'0 0.0
2018-Aug-15 12:28N 44°44' E 037°48'0 0.0
2018-Aug-15 11:58N 44°44' E 037°48'0 0.0
2018-Aug-15 11:31N 44°44' E 037°48'0 0.0
2018-Aug-15 11:01N 44°44' E 037°48'0 0.0
2018-Aug-15 10:30N 44°44' E 037°48'0 0.0
2018-Aug-15 10:00N 44°44' E 037°48'0 0.0
2018-Aug-15 09:30N 44°44' E 037°48'0 0.0
2018-Aug-15 09:00N 44°44' E 037°48'0 0.0
2018-Aug-15 08:24N 44°44' E 037°48'0 0.0
2018-Aug-15 08:00N 44°44' E 037°48'0 0.0
2018-Aug-15 07:30N 44°44' E 037°48'0 0.0
2018-Aug-15 07:00N 44°44' E 037°48'0 0.0
2018-Aug-15 06:30N 44°44' E 037°48'0 0.0
2018-Aug-15 06:00N 44°44' E 037°48'0 0.0
2018-Aug-15 05:30N 44°44' E 037°48'0 0.0
2018-Aug-15 05:00N 44°44' E 037°48'0 0.0
2018-Aug-15 04:30N 44°44' E 037°48'0 0.0
2018-Aug-15 04:00N 44°44' E 037°48'0 0.0
2018-Aug-15 03:30N 44°44' E 037°48'0 0.0
2018-Aug-15 03:00N 44°44' E 037°48'0 0.0
2018-Aug-15 02:30N 44°44' E 037°48'0 0.0
2018-Aug-15 02:00N 44°44' E 037°48'0 0.0
2018-Aug-15 01:30N 44°44' E 037°48'0 0.0
2018-Aug-15 01:00N 44°44' E 037°48'0 0.0
2018-Aug-15 00:30N 44°44' E 037°48'0 0.0
2018-Aug-14 23:57N 44°44' E 037°48'0 0.0
2018-Aug-14 23:30N 44°44' E 037°48'0 0.0
2018-Aug-14 23:00N 44°44' E 037°48'0 0.0
2018-Aug-14 22:30N 44°44' E 037°48'0 0.0
2018-Aug-14 22:00N 44°44' E 037°48'0 0.0
2018-Aug-14 21:30N 44°44' E 037°48'0 0.1
2018-Aug-14 21:00N 44°44' E 037°48'0 0.1
2018-Aug-14 20:30N 44°44' E 037°48'0 0.0
2018-Aug-14 20:00N 44°44' E 037°48'0 0.0
2018-Aug-14 19:30N 44°44' E 037°48'0 0.0
2018-Aug-14 19:00N 44°44' E 037°48'0 0.0
2018-Aug-14 18:30N 44°44' E 037°48'0 0.0
2018-Aug-14 18:00N 44°44' E 037°48'0 0.0
2018-Aug-14 17:30N 44°44' E 037°48'0 0.0
2018-Aug-14 17:00N 44°44' E 037°48'0 0.0
2018-Aug-14 16:30N 44°44' E 037°48'0 0.0
2018-Aug-14 16:00N 44°44' E 037°48'0 0.0
2018-Aug-14 15:30N 44°44' E 037°48'0 0.0
2018-Aug-14 15:00N 44°44' E 037°48'0 0.0
2018-Aug-14 14:30N 44°44' E 037°48'0 0.0
2018-Aug-14 14:00N 44°44' E 037°48'0 0.0
2018-Aug-14 13:30N 44°44' E 037°48'0 0.0
2018-Aug-14 13:00N 44°44' E 037°48'0 0.0
2018-Aug-14 12:30N 44°44' E 037°48'0 0.0
2018-Aug-14 11:59N 44°44' E 037°48'0 0.0
2018-Aug-14 11:29N 44°44' E 037°48'0 0.0
2018-Aug-14 10:59N 44°44' E 037°48'0 0.0
2018-Aug-14 10:29N 44°44' E 037°48'0 0.0
2018-Aug-14 09:59N 44°44' E 037°48'0 0.0
2018-Aug-14 09:29N 44°44' E 037°48'0 0.0
2018-Aug-14 08:59N 44°44' E 037°48'0 0.0
2018-Aug-14 08:29N 44°44' E 037°48'0 0.0
2018-Aug-14 07:59N 44°44' E 037°48'0 0.0
2018-Aug-14 07:29N 44°44' E 037°48'0 0.0
2018-Aug-14 06:59N 44°44' E 037°48'0 0.0
2018-Aug-14 06:29N 44°44' E 037°48'0 0.0
2018-Aug-14 05:59N 44°44' E 037°48'0 0.0
2018-Aug-14 05:29N 44°44' E 037°48'0 0.0
2018-Aug-14 04:59N 44°44' E 037°48'0 0.0
2018-Aug-14 04:29N 44°44' E 037°48'0 0.0
2018-Aug-14 03:59N 44°44' E 037°48'0 0.1
2018-Aug-14 03:29N 44°44' E 037°48'0 0.1
2018-Aug-14 02:59N 44°44' E 037°48'0 0.0
2018-Aug-14 02:29N 44°44' E 037°48'0 0.0
2018-Aug-14 01:59N 44°44' E 037°48'0 0.0
2018-Aug-14 01:29N 44°44' E 037°48'0 0.0
2018-Aug-14 00:59N 44°44' E 037°48'0 0.0
2018-Aug-14 00:29N 44°44' E 037°48'0 0.0
2018-Aug-13 23:59N 44°44' E 037°48'0 0.0
2018-Aug-13 23:29N 44°44' E 037°48'0 0.0
2018-Aug-13 22:59N 44°44' E 037°48'0 0.0
2018-Aug-13 22:29N 44°44' E 037°48'0 0.0
2018-Aug-13 21:59N 44°44' E 037°48'0 0.0
2018-Aug-13 21:29N 44°44' E 037°48'0 0.0
2018-Aug-13 20:59N 44°44' E 037°48'0 0.0
2018-Aug-13 20:29N 44°44' E 037°48'0 0.0
2018-Aug-13 19:59N 44°44' E 037°48'0 0.0
2018-Aug-13 19:29N 44°44' E 037°48'0 0.0
2018-Aug-13 18:59N 44°44' E 037°48'0 0.0
2018-Aug-13 18:29N 44°44' E 037°48'0 0.0
2018-Aug-13 17:59N 44°44' E 037°48'0 0.0
2018-Aug-13 17:29N 44°44' E 037°48'0 0.0
2018-Aug-13 16:59N 44°44' E 037°48'0 0.0
2018-Aug-13 16:29N 44°44' E 037°48'0 0.0
2018-Aug-13 15:59N 44°44' E 037°48'0 0.0
2018-Aug-13 15:29N 44°44' E 037°48'0 0.0
2018-Aug-13 14:56N 44°44' E 037°48'0 0.0
2018-Aug-13 14:29N 44°44' E 037°48'0 0.0
2018-Aug-13 13:59N 44°44' E 037°48'0 0.0
2018-Aug-13 13:29N 44°44' E 037°48'0 0.0
2018-Aug-13 12:59N 44°44' E 037°48'0 0.0
2018-Aug-13 12:29N 44°44' E 037°48'0 0.0
2018-Aug-13 11:59N 44°44' E 037°48'0 0.0
2018-Aug-13 11:29N 44°44' E 037°48'0 0.0
2018-Aug-13 10:59N 44°44' E 037°48'0 0.0
2018-Aug-13 10:29N 44°44' E 037°48'0 0.0
2018-Aug-13 09:59N 44°44' E 037°48'0 0.0
2018-Aug-13 09:29N 44°44' E 037°48'0 0.0
2018-Aug-13 08:53N 44°44' E 037°48'0 0.0
2018-Aug-13 08:29N 44°44' E 037°48'0 0.0
2018-Aug-13 07:59N 44°44' E 037°48'0 0.0
2018-Aug-13 07:29N 44°44' E 037°48'0 0.0
2018-Aug-13 06:59N 44°44' E 037°48'0 0.0
2018-Aug-13 06:29N 44°44' E 037°48'0 0.0
2018-Aug-13 05:59N 44°44' E 037°48'0 0.0
2018-Aug-13 05:29N 44°44' E 037°48'0 0.0
2018-Aug-13 04:59N 44°44' E 037°48'0 0.0
2018-Aug-13 04:29N 44°44' E 037°48'0 0.0
2018-Aug-13 03:59N 44°44' E 037°48'0 0.0
2018-Aug-13 03:29N 44°44' E 037°48'0 0.0
2018-Aug-13 02:59N 44°44' E 037°48'0 0.0
2018-Aug-13 02:28N 44°44' E 037°48'0 0.0
2018-Aug-13 01:58N 44°44' E 037°48'0 0.0
2018-Aug-13 01:22N 44°44' E 037°48'0 0.0
2018-Aug-13 00:58N 44°44' E 037°48'0 0.0
2018-Aug-13 00:28N 44°44' E 037°48'0 0.0
2018-Aug-12 23:58N 44°44' E 037°48'0 0.0
2018-Aug-12 23:28N 44°44' E 037°48'0 0.0
2018-Aug-12 22:58N 44°44' E 037°48'0 0.0
2018-Aug-12 22:28N 44°44' E 037°48'0 0.0
2018-Aug-12 21:58N 44°44' E 037°48'0 0.0
2018-Aug-12 21:28N 44°44' E 037°48'0 0.0
2018-Aug-12 20:58N 44°44' E 037°48'0 0.0
2018-Aug-12 20:28N 44°44' E 037°48'0 0.0
2018-Aug-12 19:58N 44°44' E 037°48'0 0.0
2018-Aug-12 19:28N 44°44' E 037°48'0 0.0
2018-Aug-12 18:58N 44°44' E 037°48'0 0.0
2018-Aug-12 18:28N 44°44' E 037°48'0 0.0
2018-Aug-12 17:58N 44°44' E 037°48'0 0.0
2018-Aug-12 17:28N 44°44' E 037°48'0 0.0
2018-Aug-12 16:58N 44°44' E 037°48'0 0.0
2018-Aug-12 16:28N 44°44' E 037°48'0 0.0
2018-Aug-12 15:58N 44°44' E 037°48'0 0.0
2018-Aug-12 15:28N 44°44' E 037°48'0 0.0
2018-Aug-12 14:58N 44°44' E 037°48'0 0.0
2018-Aug-12 14:28N 44°44' E 037°48'0 0.0
2018-Aug-12 13:58N 44°44' E 037°48'0 0.0
2018-Aug-12 13:28N 44°44' E 037°48'0 0.0
2018-Aug-12 12:58N 44°44' E 037°48'0 0.0
2018-Aug-12 12:28N 44°44' E 037°48'0 0.0
2018-Aug-12 11:58N 44°44' E 037°48'0 0.0
2018-Aug-12 11:25N 44°44' E 037°48'0 0.0
2018-Aug-12 10:58N 44°44' E 037°48'0 0.0
2018-Aug-12 10:28N 44°44' E 037°48'0 0.0
2018-Aug-12 09:58N 44°44' E 037°48'0 0.0
2018-Aug-12 09:28N 44°44' E 037°48'0 0.0
2018-Aug-12 08:58N 44°44' E 037°48'0 0.0
2018-Aug-12 08:28N 44°44' E 037°48'0 0.0
2018-Aug-12 07:58N 44°44' E 037°48'0 0.0
2018-Aug-12 07:28N 44°44' E 037°48'0 0.0
2018-Aug-12 06:58N 44°44' E 037°48'0 0.0
2018-Aug-12 06:28N 44°44' E 037°48'0 0.0
2018-Aug-12 05:58N 44°44' E 037°48'0 0.0
2018-Aug-12 05:28N 44°44' E 037°48'0 0.0
2018-Aug-12 04:58N 44°44' E 037°48'0 0.0
2018-Aug-12 04:28N 44°44' E 037°48'0 0.0
2018-Aug-12 03:58N 44°44' E 037°48'0 0.0
2018-Aug-12 03:28N 44°44' E 037°48'0 0.0
2018-Aug-12 02:58N 44°44' E 037°48'0 0.0
2018-Aug-12 02:28N 44°44' E 037°48'0 0.0
2018-Aug-12 01:58N 44°44' E 037°48'0 0.0
2018-Aug-12 01:28N 44°44' E 037°48'0 0.0
2018-Aug-12 00:58N 44°44' E 037°48'0 0.0
2018-Aug-12 00:28N 44°44' E 037°48'0 0.0
2018-Aug-11 23:58N 44°44' E 037°48'0 0.0
2018-Aug-11 23:28N 44°44' E 037°48'0 0.0
2018-Aug-11 22:58N 44°44' E 037°48'0 0.0
2018-Aug-11 22:28N 44°44' E 037°48'0 0.0
2018-Aug-11 21:58N 44°44' E 037°48'0 0.0
2018-Aug-11 21:28N 44°44' E 037°48'0 0.0
2018-Aug-11 20:58N 44°44' E 037°48'0 0.0
2018-Aug-11 20:28N 44°44' E 037°48'0 0.0
2018-Aug-11 19:58N 44°44' E 037°48'0 0.0
2018-Aug-11 19:28N 44°44' E 037°48'0 0.0
2018-Aug-11 18:58N 44°44' E 037°48'0 0.0
2018-Aug-11 18:28N 44°44' E 037°48'0 0.0
2018-Aug-11 18:01N 44°44' E 037°48'0 0.0
2018-Aug-11 17:31N 44°44' E 037°48'0 0.0
2018-Aug-11 17:01N 44°44' E 037°48'0 0.0
2018-Aug-11 16:30N 44°44' E 037°48'0 0.0
2018-Aug-11 16:00N 44°44' E 037°48'0 0.0
2018-Aug-11 15:30N 44°44' E 037°48'0 0.0
2018-Aug-11 15:00N 44°44' E 037°48'0 0.0
2018-Aug-11 14:30N 44°44' E 037°48'0 0.0
2018-Aug-11 14:00N 44°44' E 037°48'0 0.0
2018-Aug-11 13:27N 44°44' E 037°48'0 0.0
2018-Aug-11 13:00N 44°44' E 037°48'0 0.0
2018-Aug-11 12:27N 44°44' E 037°48'0 0.0
2018-Aug-11 12:00N 44°44' E 037°48'0 0.0
2018-Aug-11 11:30N 44°44' E 037°48'0 0.0
2018-Aug-11 11:00N 44°44' E 037°48'0 0.0
2018-Aug-11 10:30N 44°44' E 037°48'0 0.0
2018-Aug-11 09:51N 44°44' E 037°48'0 0.0
2018-Aug-11 09:30N 44°44' E 037°48'0 0.0
2018-Aug-11 09:00N 44°44' E 037°48'0 0.0
2018-Aug-11 08:30N 44°44' E 037°48'0 0.0
2018-Aug-11 08:00N 44°44' E 037°48'0 0.0
2018-Aug-11 07:30N 44°44' E 037°48'0 0.0
2018-Aug-11 06:57N 44°44' E 037°48'0 0.0
2018-Aug-11 06:30N 44°44' E 037°48'0 0.0
2018-Aug-11 06:00N 44°44' E 037°48'0 0.0
2018-Aug-11 05:30N 44°44' E 037°48'0 0.0
2018-Aug-11 05:00N 44°44' E 037°48'0 0.0
2018-Aug-11 04:30N 44°44' E 037°48'0 0.0
2018-Aug-11 04:00N 44°44' E 037°48'0 0.0
2018-Aug-11 03:30N 44°44' E 037°48'0 0.0
2018-Aug-11 03:00N 44°44' E 037°48'0 0.0
2018-Aug-11 02:30N 44°44' E 037°48'0 0.0
2018-Aug-11 02:00N 44°44' E 037°48'0 0.0
2018-Aug-11 01:30N 44°44' E 037°48'0 0.0
2018-Aug-11 01:00N 44°44' E 037°48'0 0.0
2018-Aug-11 00:30N 44°44' E 037°48'0 0.0
2018-Aug-11 00:00N 44°44' E 037°48'0 0.0
2018-Aug-10 23:30N 44°44' E 037°48'0 0.0
2018-Aug-10 23:00N 44°44' E 037°48'0 0.0
2018-Aug-10 22:30N 44°44' E 037°48'0 0.0
2018-Aug-10 22:00N 44°44' E 037°48'0 0.0
2018-Aug-10 21:30N 44°44' E 037°48'0 0.0
2018-Aug-10 21:00N 44°44' E 037°48'0 0.0
2018-Aug-10 20:30N 44°44' E 037°48'0 0.0
2018-Aug-10 20:00N 44°44' E 037°48'0 0.0
2018-Aug-10 19:30N 44°44' E 037°48'0 0.0
2018-Aug-10 19:00N 44°44' E 037°48'0 0.0
2018-Aug-10 18:30N 44°44' E 037°48'0 0.0
2018-Aug-10 17:54N 44°44' E 037°48'0 0.0
2018-Aug-10 17:30N 44°44' E 037°48'0 0.0
2018-Aug-10 17:00N 44°44' E 037°48'0 0.0
2018-Aug-10 16:30N 44°44' E 037°48'0 0.0
2018-Aug-10 16:00N 44°44' E 037°48'0 0.0
2018-Aug-10 15:30N 44°44' E 037°48'0 0.0
2018-Aug-10 15:00N 44°44' E 037°48'0 0.0
2018-Aug-10 14:30N 44°44' E 037°48'0 0.0
2018-Aug-10 14:00N 44°44' E 037°48'0 0.0
2018-Aug-10 13:30N 44°44' E 037°48'0 0.0
2018-Aug-10 13:00N 44°44' E 037°48'0 0.0
2018-Aug-10 12:30N 44°44' E 037°48'0 0.0
2018-Aug-10 12:00N 44°44' E 037°48'0 0.0
2018-Aug-10 11:30N 44°44' E 037°48'0 0.0
2018-Aug-10 11:00N 44°44' E 037°48'0 0.0
2018-Aug-10 10:30N 44°44' E 037°48'0 0.0
2018-Aug-10 10:00N 44°44' E 037°48'0 0.0
2018-Aug-10 09:30N 44°44' E 037°48'0 0.0
2018-Aug-10 09:00N 44°44' E 037°48'0 0.0
2018-Aug-10 08:30N 44°44' E 037°48'0 0.0
2018-Aug-10 08:00N 44°44' E 037°48'0 0.0
2018-Aug-10 07:29N 44°44' E 037°48'0 0.0
2018-Aug-10 06:59N 44°44' E 037°48'0 0.0
2018-Aug-10 06:29N 44°44' E 037°48'0 0.0
2018-Aug-10 05:59N 44°44' E 037°48'0 0.0
2018-Aug-10 05:29N 44°44' E 037°48'0 0.0
2018-Aug-10 04:59N 44°44' E 037°48'0 0.0
2018-Aug-10 04:29N 44°44' E 037°48'0 0.0
2018-Aug-10 03:59N 44°44' E 037°48'0 0.0
2018-Aug-10 03:29N 44°44' E 037°48'0 0.0
2018-Aug-10 02:59N 44°44' E 037°48'0 0.0
2018-Aug-10 02:29N 44°44' E 037°48'0 0.0
2018-Aug-10 01:59N 44°44' E 037°48'0 0.0
2018-Aug-10 01:29N 44°44' E 037°48'0 0.0
2018-Aug-10 00:59N 44°44' E 037°48'0 0.0
2018-Aug-10 00:29N 44°44' E 037°48'0 0.0
2018-Aug-09 23:59N 44°44' E 037°48'0 0.0
2018-Aug-09 23:29N 44°44' E 037°48'0 0.0
2018-Aug-09 22:59N 44°44' E 037°48'0 0.0
2018-Aug-09 22:29N 44°44' E 037°48'0 0.0
2018-Aug-09 21:59N 44°44' E 037°48'0 0.0
2018-Aug-09 21:29N 44°44' E 037°48'0 0.0
2018-Aug-09 20:59N 44°44' E 037°48'0 0.0
2018-Aug-09 20:29N 44°44' E 037°48'0 0.0
2018-Aug-09 19:59N 44°44' E 037°48'0 0.0
2018-Aug-09 19:29N 44°44' E 037°48'0 0.0
2018-Aug-09 18:59N 44°44' E 037°48'0 0.0
2018-Aug-09 18:29N 44°44' E 037°48'0 0.0
2018-Aug-09 17:59N 44°44' E 037°48'0 0.0
2018-Aug-09 17:29N 44°44' E 037°48'0 0.0
2018-Aug-09 16:59N 44°44' E 037°48'0 0.0
2018-Aug-09 16:29N 44°44' E 037°48'0 0.0
2018-Aug-09 15:59N 44°44' E 037°48'0 0.0
2018-Aug-09 15:29N 44°44' E 037°48'0 0.0
2018-Aug-09 14:59N 44°44' E 037°48'0 0.0
2018-Aug-09 14:29N 44°44' E 037°48'0 0.0
2018-Aug-09 13:59N 44°44' E 037°48'0 0.0
2018-Aug-09 11:05N 44°44' E 037°48'0 0.0
2018-Aug-09 10:59N 44°44' E 037°48'0 0.0
2018-Aug-09 10:29N 44°44' E 037°48'0 0.0
2018-Aug-09 09:59N 44°44' E 037°48'0 0.0
2018-Aug-09 09:29N 44°44' E 037°48'0 0.0
2018-Aug-09 08:59N 44°44' E 037°48'0 0.0
2018-Aug-09 08:29N 44°44' E 037°48'0 0.0
2018-Aug-09 07:59N 44°44' E 037°48'0 0.0
2018-Aug-09 07:29N 44°44' E 037°48'0 0.0
2018-Aug-09 06:59N 44°44' E 037°48'0 0.0
2018-Aug-09 06:29N 44°44' E 037°48'0 0.0
2018-Aug-09 05:59N 44°44' E 037°48'0 0.0
2018-Aug-09 05:29N 44°44' E 037°48'0 0.0
2018-Aug-09 04:59N 44°44' E 037°48'0 0.0
2018-Aug-09 04:29N 44°44' E 037°48'0 0.0
2018-Aug-09 03:59N 44°44' E 037°48'0 0.0
2018-Aug-09 03:29N 44°44' E 037°48'0 0.0
2018-Aug-09 02:59N 44°44' E 037°48'0 0.0
2018-Aug-09 02:29N 44°44' E 037°48'0 0.0
2018-Aug-09 01:59N 44°44' E 037°48'0 0.0
2018-Aug-09 01:29N 44°44' E 037°48'0 0.0
2018-Aug-09 00:59N 44°44' E 037°48'0 0.0
2018-Aug-09 00:29N 44°44' E 037°48'0 0.0
2018-Aug-08 23:59N 44°44' E 037°48'0 0.0
2018-Aug-08 23:29N 44°44' E 037°48'0 0.0
2018-Aug-08 22:59N 44°44' E 037°48'0 0.0
2018-Aug-08 22:29N 44°44' E 037°48'0 0.0
2018-Aug-08 21:59N 44°44' E 037°48'0 0.0
2018-Aug-08 21:28N 44°44' E 037°48'0 0.0
2018-Aug-08 20:58N 44°44' E 037°48'0 0.0
2018-Aug-08 20:28N 44°44' E 037°48'0 0.0
2018-Aug-08 19:58N 44°44' E 037°48'0 0.0
2018-Aug-08 19:28N 44°44' E 037°48'0 0.0
2018-Aug-08 18:58N 44°44' E 037°48'0 0.0
2018-Aug-08 18:28N 44°44' E 037°48'0 0.0
2018-Aug-08 17:58N 44°44' E 037°48'0 0.0
2018-Aug-08 17:25N 44°44' E 037°48'1 1.6
2018-Aug-08 17:00N 44°43' E 037°48'4 7.5
2018-Aug-08 16:30N 44°40' E 037°50'3 5.6
2018-Aug-08 16:00N 44°38' E 037°52'2 3.9
2018-Aug-08 15:30N 44°39' E 037°54'1 1.3
2018-Aug-08 14:58N 44°39' E 037°55'0 0.0
2018-Aug-08 14:28N 44°39' E 037°55'0 0.0
2018-Aug-08 13:58N 44°39' E 037°55'0 0.0
2018-Aug-08 13:28N 44°39' E 037°55'0 0.0
2018-Aug-08 12:58N 44°39' E 037°55'0 0.0
2018-Aug-08 12:28N 44°39' E 037°55'0 0.1
2018-Aug-08 11:58N 44°39' E 037°55'0 0.0
2018-Aug-08 11:28N 44°39' E 037°55'0 0.0
2018-Aug-08 10:58N 44°39' E 037°55'0 0.0
2018-Aug-08 10:28N 44°39' E 037°55'0 0.0
2018-Aug-08 09:58N 44°39' E 037°55'0 0.1
2018-Aug-08 09:28N 44°39' E 037°55'0 0.0
2018-Aug-08 08:58N 44°39' E 037°55'0 0.0
2018-Aug-08 08:28N 44°39' E 037°55'0 0.0
2018-Aug-08 07:58N 44°39' E 037°55'0 0.0
2018-Aug-08 07:28N 44°39' E 037°55'0 0.0
2018-Aug-08 06:58N 44°39' E 037°55'0 0.0
2018-Aug-08 06:28N 44°39' E 037°55'0 0.0
2018-Aug-08 05:58N 44°39' E 037°55'0 0.0
2018-Aug-08 05:28N 44°39' E 037°55'0 0.0
2018-Aug-08 04:58N 44°39' E 037°55'0 0.0
2018-Aug-08 04:28N 44°39' E 037°55'0 0.0
2018-Aug-08 03:58N 44°39' E 037°55'0 0.0
2018-Aug-08 03:28N 44°39' E 037°55'0 0.0
2018-Aug-08 02:58N 44°39' E 037°55'0 0.0
2018-Aug-08 02:28N 44°39' E 037°55'0 0.0
2018-Aug-08 01:58N 44°39' E 037°55'0 0.0
2018-Aug-08 01:28N 44°39' E 037°55'0 0.0
2018-Aug-08 00:58N 44°39' E 037°55'0 0.0
2018-Aug-08 00:25N 44°39' E 037°55'0 0.0
2018-Aug-07 23:55N 44°39' E 037°55'  
Track history (hours):
 
Tides and Currents Weather Stations Pressure Air Temp Water Temp Dewpoint Dewpoint Depression Visibility Wind Speed Wind Dir Waves Ship Positions

Skiff

Last reported at 2018-Aug-17 23:32 UTC. Time now 2018-Aug-19 22:54 UTC.
Position N 43°21' E 028°35'.

Length 84 m; draft 5.6 m.

Type: Cargo ship. MMSI: 671480000.

Date/timePositionNaut miles runAvg speedWind from/ knotsBaromVisibWave heightAir tempDewpointWater temp
2018-Aug-17 23:32N 43°21' E 028°35'1 8.6
2018-Aug-17 23:26N 43°21' E 028°36'4 8.3
2018-Aug-17 23:01N 43°21' E 028°41'4 8.3
2018-Aug-17 22:30N 43°22' E 028°47'4 8.4
2018-Aug-17 22:00N 43°24' E 028°52'4 8.4
2018-Aug-17 21:30N 43°26' E 028°57'4 8.4
2018-Aug-17 21:01N 43°28' E 029°02'4 8.5
2018-Aug-17 20:30N 43°29' E 029°08'4 8.5
2018-Aug-17 20:00N 43°31' E 029°13'4 8.6
2018-Aug-17 19:30N 43°33' E 029°18'4 8.5
2018-Aug-17 19:00N 43°35' E 029°24'4 8.5
2018-Aug-17 18:30N 43°37' E 029°29'4 8.5
2018-Aug-17 18:00N 43°38' E 029°34'4 8.6
2018-Aug-17 17:31N 43°40' E 029°39'4 8.6
2018-Aug-17 17:01N 43°42' E 029°45'4 8.6
2018-Aug-17 16:30N 43°44' E 029°50'4 8.7
2018-Aug-17 16:00N 43°46' E 029°56'4 8.8
2018-Aug-17 15:30N 43°48' E 030°01'4 8.8
2018-Aug-17 15:01N 43°50' E 030°07'9 8.9
2018-Aug-17 14:00N 43°53' E 030°18'5 8.8
2018-Aug-17 13:27N 43°55' E 030°25'4 8.9
2018-Aug-17 13:00N 43°56' E 030°30'9 8.7
2018-Aug-17 12:01N 43°57' E 030°42'0 9.4
2018-Aug-17 12:01N 43°57' E 030°42'4 8.5
2018-Aug-17 11:30N 43°58' E 030°47'4 8.4
2018-Aug-17 11:00N 43°58' E 030°53'4 8.6
2018-Aug-17 10:30N 43°58' E 030°59'4 8.6
2018-Aug-17 10:00N 43°58' E 031°05'4 8.7
2018-Aug-17 09:30N 43°58' E 031°11'5 8.8
2018-Aug-17 08:59N 43°58' E 031°18'4 8.8
2018-Aug-17 08:30N 43°58' E 031°24'4 8.7
2018-Aug-17 08:00N 43°58' E 031°29'4 8.6
2018-Aug-17 07:30N 43°58' E 031°35'4 8.5
2018-Aug-17 07:00N 43°58' E 031°41'16 8.6
2018-Aug-17 05:09N 43°58' E 032°03'2 8.7
2018-Aug-17 04:56N 43°58' E 032°06'4 8.7
2018-Aug-17 04:30N 43°58' E 032°11'5 8.7
2018-Aug-17 03:59N 43°58' E 032°18'4 8.7
2018-Aug-17 03:31N 43°58' E 032°23'4 8.8
2018-Aug-17 03:01N 43°57' E 032°29'4 8.9
2018-Aug-17 02:30N 43°57' E 032°36'5 8.9
2018-Aug-17 01:59N 43°57' E 032°42'4 9.0
2018-Aug-17 01:30N 43°57' E 032°48'4 8.9
2018-Aug-17 01:00N 43°57' E 032°54'4 8.9
2018-Aug-17 00:30N 43°56' E 033°00'5 8.7
2018-Aug-16 23:58N 43°56' E 033°07'159 8.4
2018-Aug-16 05:08N 44°12' E 036°47'33 8.3
2018-Aug-16 01:10N 44°28' E 037°26'2 8.9
2018-Aug-16 00:55N 44°29' E 037°29'5 9.3
2018-Aug-16 00:24N 44°31' E 037°35'4 9.5
2018-Aug-16 00:00N 44°32' E 037°40'4 8.8
2018-Aug-15 23:30N 44°35' E 037°45'4 8.4
2018-Aug-15 23:00N 44°38' E 037°49'3 6.0
2018-Aug-15 22:30N 44°41' E 037°50'3 6.9
2018-Aug-15 22:00N 44°44' E 037°47'0 0.2
2018-Aug-15 21:28N 44°44' E 037°48'0 0.0
2018-Aug-15 20:58N 44°44' E 037°48'0 0.0
2018-Aug-15 20:28N 44°44' E 037°48'0 0.0
2018-Aug-15 19:58N 44°44' E 037°48'0 0.0
2018-Aug-15 19:28N 44°44' E 037°48'0 0.0
2018-Aug-15 18:58N 44°44' E 037°48'0 0.0
2018-Aug-15 18:28N 44°44' E 037°48'0 0.0
2018-Aug-15 17:58N 44°44' E 037°48'0 0.0
2018-Aug-15 17:28N 44°44' E 037°48'0 0.1
2018-Aug-15 16:58N 44°44' E 037°48'0 0.0
2018-Aug-15 16:28N 44°44' E 037°48'0 0.0
2018-Aug-15 15:58N 44°44' E 037°48'0 0.0
2018-Aug-15 15:28N 44°44' E 037°48'0 0.0
2018-Aug-15 14:58N 44°44' E 037°48'0 0.0
2018-Aug-15 14:28N 44°44' E 037°48'0 0.0
2018-Aug-15 13:58N 44°44' E 037°48'0 0.0
2018-Aug-15 13:28N 44°44' E 037°48'0 0.0
2018-Aug-15 12:58N 44°44' E 037°48'0 0.0
2018-Aug-15 12:28N 44°44' E 037°48'0 0.0
2018-Aug-15 11:58N 44°44' E 037°48'0 0.0
2018-Aug-15 11:31N 44°44' E 037°48'0 0.0
2018-Aug-15 11:01N 44°44' E 037°48'0 0.0
2018-Aug-15 10:30N 44°44' E 037°48'0 0.0
2018-Aug-15 10:00N 44°44' E 037°48'0 0.0
2018-Aug-15 09:30N 44°44' E 037°48'0 0.0
2018-Aug-15 09:00N 44°44' E 037°48'0 0.0
2018-Aug-15 08:24N 44°44' E 037°48'0 0.0
2018-Aug-15 08:00N 44°44' E 037°48'0 0.0
2018-Aug-15 07:30N 44°44' E 037°48'0 0.0
2018-Aug-15 07:00N 44°44' E 037°48'0 0.0
2018-Aug-15 06:30N 44°44' E 037°48'0 0.0
2018-Aug-15 06:00N 44°44' E 037°48'0 0.0
2018-Aug-15 05:30N 44°44' E 037°48'0 0.0
2018-Aug-15 05:00N 44°44' E 037°48'0 0.0
2018-Aug-15 04:30N 44°44' E 037°48'0 0.0
2018-Aug-15 04:00N 44°44' E 037°48'0 0.0
2018-Aug-15 03:30N 44°44' E 037°48'0 0.0
2018-Aug-15 03:00N 44°44' E 037°48'0 0.0
2018-Aug-15 02:30N 44°44' E 037°48'0 0.0
2018-Aug-15 02:00N 44°44' E 037°48'0 0.0
2018-Aug-15 01:30N 44°44' E 037°48'0 0.0
2018-Aug-15 01:00N 44°44' E 037°48'0 0.0
2018-Aug-15 00:30N 44°44' E 037°48'0 0.0
2018-Aug-14 23:57N 44°44' E 037°48'0 0.0
2018-Aug-14 23:30N 44°44' E 037°48'0 0.0
2018-Aug-14 23:00N 44°44' E 037°48'0 0.0
2018-Aug-14 22:30N 44°44' E 037°48'0 0.0
2018-Aug-14 22:00N 44°44' E 037°48'0 0.0
2018-Aug-14 21:30N 44°44' E 037°48'0 0.1
2018-Aug-14 21:00N 44°44' E 037°48'0 0.1
2018-Aug-14 20:30N 44°44' E 037°48'0 0.0
2018-Aug-14 20:00N 44°44' E 037°48'0 0.0
2018-Aug-14 19:30N 44°44' E 037°48'0 0.0
2018-Aug-14 19:00N 44°44' E 037°48'0 0.0
2018-Aug-14 18:30N 44°44' E 037°48'0 0.0
2018-Aug-14 18:00N 44°44' E 037°48'0 0.0
2018-Aug-14 17:30N 44°44' E 037°48'0 0.0
2018-Aug-14 17:00N 44°44' E 037°48'0 0.0
2018-Aug-14 16:30N 44°44' E 037°48'0 0.0
2018-Aug-14 16:00N 44°44' E 037°48'0 0.0
2018-Aug-14 15:30N 44°44' E 037°48'0 0.0
2018-Aug-14 15:00N 44°44' E 037°48'0 0.0
2018-Aug-14 14:30N 44°44' E 037°48'0 0.0
2018-Aug-14 14:00N 44°44' E 037°48'0 0.0
2018-Aug-14 13:30N 44°44' E 037°48'0 0.0
2018-Aug-14 13:00N 44°44' E 037°48'0 0.0
2018-Aug-14 12:30N 44°44' E 037°48'0 0.0
2018-Aug-14 11:59N 44°44' E 037°48'0 0.0
2018-Aug-14 11:29N 44°44' E 037°48'0 0.0
2018-Aug-14 10:59N 44°44' E 037°48'0 0.0
2018-Aug-14 10:29N 44°44' E 037°48'0 0.0
2018-Aug-14 09:59N 44°44' E 037°48'0 0.0
2018-Aug-14 09:29N 44°44' E 037°48'0 0.0
2018-Aug-14 08:59N 44°44' E 037°48'0 0.0
2018-Aug-14 08:29N 44°44' E 037°48'0 0.0
2018-Aug-14 07:59N 44°44' E 037°48'0 0.0
2018-Aug-14 07:29N 44°44' E 037°48'0 0.0
2018-Aug-14 06:59N 44°44' E 037°48'0 0.0
2018-Aug-14 06:29N 44°44' E 037°48'0 0.0
2018-Aug-14 05:59N 44°44' E 037°48'0 0.0
2018-Aug-14 05:29N 44°44' E 037°48'0 0.0
2018-Aug-14 04:59N 44°44' E 037°48'0 0.0
2018-Aug-14 04:29N 44°44' E 037°48'0 0.0
2018-Aug-14 03:59N 44°44' E 037°48'0 0.1
2018-Aug-14 03:29N 44°44' E 037°48'0 0.1
2018-Aug-14 02:59N 44°44' E 037°48'0 0.0
2018-Aug-14 02:29N 44°44' E 037°48'0 0.0
2018-Aug-14 01:59N 44°44' E 037°48'0 0.0
2018-Aug-14 01:29N 44°44' E 037°48'0 0.0
2018-Aug-14 00:59N 44°44' E 037°48'0 0.0
2018-Aug-14 00:29N 44°44' E 037°48'0 0.0
2018-Aug-13 23:59N 44°44' E 037°48'0 0.0
2018-Aug-13 23:29N 44°44' E 037°48'0 0.0
2018-Aug-13 22:59N 44°44' E 037°48'0 0.0
2018-Aug-13 22:29N 44°44' E 037°48'0 0.0
2018-Aug-13 21:59N 44°44' E 037°48'0 0.0
2018-Aug-13 21:29N 44°44' E 037°48'0 0.0
2018-Aug-13 20:59N 44°44' E 037°48'0 0.0
2018-Aug-13 20:29N 44°44' E 037°48'0 0.0
2018-Aug-13 19:59N 44°44' E 037°48'0 0.0
2018-Aug-13 19:29N 44°44' E 037°48'0 0.0
2018-Aug-13 18:59N 44°44' E 037°48'0 0.0
2018-Aug-13 18:29N 44°44' E 037°48'0 0.0
2018-Aug-13 17:59N 44°44' E 037°48'0 0.0
2018-Aug-13 17:29N 44°44' E 037°48'0 0.0
2018-Aug-13 16:59N 44°44' E 037°48'0 0.0
2018-Aug-13 16:29N 44°44' E 037°48'0 0.0
2018-Aug-13 15:59N 44°44' E 037°48'0 0.0
2018-Aug-13 15:29N 44°44' E 037°48'0 0.0
2018-Aug-13 14:56N 44°44' E 037°48'0 0.0
2018-Aug-13 14:29N 44°44' E 037°48'0 0.0
2018-Aug-13 13:59N 44°44' E 037°48'0 0.0
2018-Aug-13 13:29N 44°44' E 037°48'0 0.0
2018-Aug-13 12:59N 44°44' E 037°48'0 0.0
2018-Aug-13 12:29N 44°44' E 037°48'0 0.0
2018-Aug-13 11:59N 44°44' E 037°48'0 0.0
2018-Aug-13 11:29N 44°44' E 037°48'0 0.0
2018-Aug-13 10:59N 44°44' E 037°48'0 0.0
2018-Aug-13 10:29N 44°44' E 037°48'0 0.0
2018-Aug-13 09:59N 44°44' E 037°48'0 0.0
2018-Aug-13 09:29N 44°44' E 037°48'0 0.0
2018-Aug-13 08:53N 44°44' E 037°48'0 0.0
2018-Aug-13 08:29N 44°44' E 037°48'0 0.0
2018-Aug-13 07:59N 44°44' E 037°48'0 0.0
2018-Aug-13 07:29N 44°44' E 037°48'0 0.0
2018-Aug-13 06:59N 44°44' E 037°48'0 0.0
2018-Aug-13 06:29N 44°44' E 037°48'0 0.0
2018-Aug-13 05:59N 44°44' E 037°48'0 0.0
2018-Aug-13 05:29N 44°44' E 037°48'0 0.0
2018-Aug-13 04:59N 44°44' E 037°48'0 0.0
2018-Aug-13 04:29N 44°44' E 037°48'0 0.0
2018-Aug-13 03:59N 44°44' E 037°48'0 0.0
2018-Aug-13 03:29N 44°44' E 037°48'0 0.0
2018-Aug-13 02:59N 44°44' E 037°48'0 0.0
2018-Aug-13 02:28N 44°44' E 037°48'0 0.0
2018-Aug-13 01:58N 44°44' E 037°48'0 0.0
2018-Aug-13 01:22N 44°44' E 037°48'0 0.0
2018-Aug-13 00:58N 44°44' E 037°48'0 0.0
2018-Aug-13 00:28N 44°44' E 037°48'0 0.0
2018-Aug-12 23:58N 44°44' E 037°48'0 0.0
2018-Aug-12 23:28N 44°44' E 037°48'0 0.0
2018-Aug-12 22:58N 44°44' E 037°48'0 0.0
2018-Aug-12 22:28N 44°44' E 037°48'0 0.0
2018-Aug-12 21:58N 44°44' E 037°48'0 0.0
2018-Aug-12 21:28N 44°44' E 037°48'0 0.0
2018-Aug-12 20:58N 44°44' E 037°48'0 0.0
2018-Aug-12 20:28N 44°44' E 037°48'0 0.0
2018-Aug-12 19:58N 44°44' E 037°48'0 0.0
2018-Aug-12 19:28N 44°44' E 037°48'0 0.0
2018-Aug-12 18:58N 44°44' E 037°48'0 0.0
2018-Aug-12 18:28N 44°44' E 037°48'0 0.0
2018-Aug-12 17:58N 44°44' E 037°48'0 0.0
2018-Aug-12 17:28N 44°44' E 037°48'0 0.0
2018-Aug-12 16:58N 44°44' E 037°48'0 0.0
2018-Aug-12 16:28N 44°44' E 037°48'0 0.0
2018-Aug-12 15:58N 44°44' E 037°48'0 0.0
2018-Aug-12 15:28N 44°44' E 037°48'0 0.0
2018-Aug-12 14:58N 44°44' E 037°48'0 0.0
2018-Aug-12 14:28N 44°44' E 037°48'0 0.0
2018-Aug-12 13:58N 44°44' E 037°48'0 0.0
2018-Aug-12 13:28N 44°44' E 037°48'0 0.0
2018-Aug-12 12:58N 44°44' E 037°48'0 0.0
2018-Aug-12 12:28N 44°44' E 037°48'0 0.0
2018-Aug-12 11:58N 44°44' E 037°48'0 0.0
2018-Aug-12 11:25N 44°44' E 037°48'0 0.0
2018-Aug-12 10:58N 44°44' E 037°48'0 0.0
2018-Aug-12 10:28N 44°44' E 037°48'0 0.0
2018-Aug-12 09:58N 44°44' E 037°48'0 0.0
2018-Aug-12 09:28N 44°44' E 037°48'0 0.0
2018-Aug-12 08:58N 44°44' E 037°48'0 0.0
2018-Aug-12 08:28N 44°44' E 037°48'0 0.0
2018-Aug-12 07:58N 44°44' E 037°48'0 0.0
2018-Aug-12 07:28N 44°44' E 037°48'0 0.0
2018-Aug-12 06:58N 44°44' E 037°48'0 0.0
2018-Aug-12 06:28N 44°44' E 037°48'0 0.0
2018-Aug-12 05:58N 44°44' E 037°48'0 0.0
2018-Aug-12 05:28N 44°44' E 037°48'0 0.0
2018-Aug-12 04:58N 44°44' E 037°48'0 0.0
2018-Aug-12 04:28N 44°44' E 037°48'0 0.0
2018-Aug-12 03:58N 44°44' E 037°48'0 0.0
2018-Aug-12 03:28N 44°44' E 037°48'0 0.0
2018-Aug-12 02:58N 44°44' E 037°48'0 0.0
2018-Aug-12 02:28N 44°44' E 037°48'0 0.0
2018-Aug-12 01:58N 44°44' E 037°48'0 0.0
2018-Aug-12 01:28N 44°44' E 037°48'0 0.0
2018-Aug-12 00:58N 44°44' E 037°48'0 0.0
2018-Aug-12 00:28N 44°44' E 037°48'0 0.0
2018-Aug-11 23:58N 44°44' E 037°48'0 0.0
2018-Aug-11 23:28N 44°44' E 037°48'0 0.0
2018-Aug-11 22:58N 44°44' E 037°48'0 0.0
2018-Aug-11 22:28N 44°44' E 037°48'0 0.0
2018-Aug-11 21:58N 44°44' E 037°48'0 0.0
2018-Aug-11 21:28N 44°44' E 037°48'0 0.0
2018-Aug-11 20:58N 44°44' E 037°48'0 0.0
2018-Aug-11 20:28N 44°44' E 037°48'0 0.0
2018-Aug-11 19:58N 44°44' E 037°48'0 0.0
2018-Aug-11 19:28N 44°44' E 037°48'0 0.0
2018-Aug-11 18:58N 44°44' E 037°48'0 0.0
2018-Aug-11 18:28N 44°44' E 037°48'0 0.0
2018-Aug-11 18:01N 44°44' E 037°48'0 0.0
2018-Aug-11 17:31N 44°44' E 037°48'0 0.0
2018-Aug-11 17:01N 44°44' E 037°48'0 0.0
2018-Aug-11 16:30N 44°44' E 037°48'0 0.0
2018-Aug-11 16:00N 44°44' E 037°48'0 0.0
2018-Aug-11 15:30N 44°44' E 037°48'0 0.0
2018-Aug-11 15:00N 44°44' E 037°48'0 0.0
2018-Aug-11 14:30N 44°44' E 037°48'0 0.0
2018-Aug-11 14:00N 44°44' E 037°48'0 0.0
2018-Aug-11 13:27N 44°44' E 037°48'0 0.0
2018-Aug-11 13:00N 44°44' E 037°48'0 0.0
2018-Aug-11 12:27N 44°44' E 037°48'0 0.0
2018-Aug-11 12:00N 44°44' E 037°48'0 0.0
2018-Aug-11 11:30N 44°44' E 037°48'0 0.0
2018-Aug-11 11:00N 44°44' E 037°48'0 0.0
2018-Aug-11 10:30N 44°44' E 037°48'0 0.0
2018-Aug-11 09:51N 44°44' E 037°48'0 0.0
2018-Aug-11 09:30N 44°44' E 037°48'0 0.0
2018-Aug-11 09:00N 44°44' E 037°48'0 0.0
2018-Aug-11 08:30N 44°44' E 037°48'0 0.0
2018-Aug-11 08:00N 44°44' E 037°48'0 0.0
2018-Aug-11 07:30N 44°44' E 037°48'0 0.0
2018-Aug-11 06:57N 44°44' E 037°48'0 0.0
2018-Aug-11 06:30N 44°44' E 037°48'0 0.0
2018-Aug-11 06:00N 44°44' E 037°48'0 0.0
2018-Aug-11 05:30N 44°44' E 037°48'0 0.0
2018-Aug-11 05:00N 44°44' E 037°48'0 0.0
2018-Aug-11 04:30N 44°44' E 037°48'0 0.0
2018-Aug-11 04:00N 44°44' E 037°48'0 0.0
2018-Aug-11 03:30N 44°44' E 037°48'0 0.0
2018-Aug-11 03:00N 44°44' E 037°48'0 0.0
2018-Aug-11 02:30N 44°44' E 037°48'0 0.0
2018-Aug-11 02:00N 44°44' E 037°48'0 0.0
2018-Aug-11 01:30N 44°44' E 037°48'0 0.0
2018-Aug-11 01:00N 44°44' E 037°48'0 0.0
2018-Aug-11 00:30N 44°44' E 037°48'0 0.0
2018-Aug-11 00:00N 44°44' E 037°48'0 0.0
2018-Aug-10 23:30N 44°44' E 037°48'0 0.0
2018-Aug-10 23:00N 44°44' E 037°48'0 0.0
2018-Aug-10 22:30N 44°44' E 037°48'0 0.0
2018-Aug-10 22:00N 44°44' E 037°48'0 0.0
2018-Aug-10 21:30N 44°44' E 037°48'0 0.0
2018-Aug-10 21:00N 44°44' E 037°48'0 0.0
2018-Aug-10 20:30N 44°44' E 037°48'0 0.0
2018-Aug-10 20:00N 44°44' E 037°48'0 0.0
2018-Aug-10 19:30N 44°44' E 037°48'0 0.0
2018-Aug-10 19:00N 44°44' E 037°48'0 0.0
2018-Aug-10 18:30N 44°44' E 037°48'0 0.0
2018-Aug-10 17:54N 44°44' E 037°48'0 0.0
2018-Aug-10 17:30N 44°44' E 037°48'0 0.0
2018-Aug-10 17:00N 44°44' E 037°48'0 0.0
2018-Aug-10 16:30N 44°44' E 037°48'0 0.0
2018-Aug-10 16:00N 44°44' E 037°48'0 0.0
2018-Aug-10 15:30N 44°44' E 037°48'0 0.0
2018-Aug-10 15:00N 44°44' E 037°48'0 0.0
2018-Aug-10 14:30N 44°44' E 037°48'0 0.0
2018-Aug-10 14:00N 44°44' E 037°48'0 0.0
2018-Aug-10 13:30N 44°44' E 037°48'0 0.0
2018-Aug-10 13:00N 44°44' E 037°48'0 0.0
2018-Aug-10 12:30N 44°44' E 037°48'0 0.0
2018-Aug-10 12:00N 44°44' E 037°48'0 0.0
2018-Aug-10 11:30N 44°44' E 037°48'0 0.0
2018-Aug-10 11:00N 44°44' E 037°48'0 0.0
2018-Aug-10 10:30N 44°44' E 037°48'0 0.0
2018-Aug-10 10:00N 44°44' E 037°48'0 0.0
2018-Aug-10 09:30N 44°44' E 037°48'0 0.0
2018-Aug-10 09:00N 44°44' E 037°48'0 0.0
2018-Aug-10 08:30N 44°44' E 037°48'0 0.0
2018-Aug-10 08:00N 44°44' E 037°48'0 0.0
2018-Aug-10 07:29N 44°44' E 037°48'0 0.0
2018-Aug-10 06:59N 44°44' E 037°48'0 0.0
2018-Aug-10 06:29N 44°44' E 037°48'0 0.0
2018-Aug-10 05:59N 44°44' E 037°48'0 0.0
2018-Aug-10 05:29N 44°44' E 037°48'0 0.0
2018-Aug-10 04:59N 44°44' E 037°48'0 0.0
2018-Aug-10 04:29N 44°44' E 037°48'0 0.0
2018-Aug-10 03:59N 44°44' E 037°48'0 0.0
2018-Aug-10 03:29N 44°44' E 037°48'0 0.0
2018-Aug-10 02:59N 44°44' E 037°48'0 0.0
2018-Aug-10 02:29N 44°44' E 037°48'0 0.0
2018-Aug-10 01:59N 44°44' E 037°48'0 0.0
2018-Aug-10 01:29N 44°44' E 037°48'0 0.0
2018-Aug-10 00:59N 44°44' E 037°48'0 0.0
2018-Aug-10 00:29N 44°44' E 037°48'0 0.0
2018-Aug-09 23:59N 44°44' E 037°48'0 0.0
2018-Aug-09 23:29N 44°44' E 037°48'0 0.0
2018-Aug-09 22:59N 44°44' E 037°48'0 0.0
2018-Aug-09 22:29N 44°44' E 037°48'0 0.0
2018-Aug-09 21:59N 44°44' E 037°48'0 0.0
2018-Aug-09 21:29N 44°44' E 037°48'0 0.0
2018-Aug-09 20:59N 44°44' E 037°48'0 0.0
2018-Aug-09 20:29N 44°44' E 037°48'0 0.0
2018-Aug-09 19:59N 44°44' E 037°48'0 0.0
2018-Aug-09 19:29N 44°44' E 037°48'0 0.0
2018-Aug-09 18:59N 44°44' E 037°48'0 0.0
2018-Aug-09 18:29N 44°44' E 037°48'0 0.0
2018-Aug-09 17:59N 44°44' E 037°48'0 0.0
2018-Aug-09 17:29N 44°44' E 037°48'0 0.0
2018-Aug-09 16:59N 44°44' E 037°48'0 0.0
2018-Aug-09 16:29N 44°44' E 037°48'0 0.0
2018-Aug-09 15:59N 44°44' E 037°48'0 0.0
2018-Aug-09 15:29N 44°44' E 037°48'0 0.0
2018-Aug-09 14:59N 44°44' E 037°48'0 0.0
2018-Aug-09 14:29N 44°44' E 037°48'0 0.0
2018-Aug-09 13:59N 44°44' E 037°48'0 0.0
2018-Aug-09 11:05N 44°44' E 037°48'0 0.0
2018-Aug-09 10:59N 44°44' E 037°48'0 0.0
2018-Aug-09 10:29N 44°44' E 037°48'0 0.0
2018-Aug-09 09:59N 44°44' E 037°48'0 0.0
2018-Aug-09 09:29N 44°44' E 037°48'0 0.0
2018-Aug-09 08:59N 44°44' E 037°48'0 0.0
2018-Aug-09 08:29N 44°44' E 037°48'0 0.0
2018-Aug-09 07:59N 44°44' E 037°48'0 0.0
2018-Aug-09 07:29N 44°44' E 037°48'0 0.0
2018-Aug-09 06:59N 44°44' E 037°48'0 0.0
2018-Aug-09 06:29N 44°44' E 037°48'0 0.0
2018-Aug-09 05:59N 44°44' E 037°48'0 0.0
2018-Aug-09 05:29N 44°44' E 037°48'0 0.0
2018-Aug-09 04:59N 44°44' E 037°48'0 0.0
2018-Aug-09 04:29N 44°44' E 037°48'0 0.0
2018-Aug-09 03:59N 44°44' E 037°48'0 0.0
2018-Aug-09 03:29N 44°44' E 037°48'0 0.0
2018-Aug-09 02:59N 44°44' E 037°48'0 0.0
2018-Aug-09 02:29N 44°44' E 037°48'0 0.0
2018-Aug-09 01:59N 44°44' E 037°48'0 0.0
2018-Aug-09 01:29N 44°44' E 037°48'0 0.0
2018-Aug-09 00:59N 44°44' E 037°48'0 0.0
2018-Aug-09 00:29N 44°44' E 037°48'0 0.0
2018-Aug-08 23:59N 44°44' E 037°48'0 0.0
2018-Aug-08 23:29N 44°44' E 037°48'0 0.0
2018-Aug-08 22:59N 44°44' E 037°48'0 0.0
2018-Aug-08 22:29N 44°44' E 037°48'0 0.0
2018-Aug-08 21:59N 44°44' E 037°48'0 0.0
2018-Aug-08 21:28N 44°44' E 037°48'0 0.0
2018-Aug-08 20:58N 44°44' E 037°48'0 0.0
2018-Aug-08 20:28N 44°44' E 037°48'0 0.0
2018-Aug-08 19:58N 44°44' E 037°48'0 0.0
2018-Aug-08 19:28N 44°44' E 037°48'0 0.0
2018-Aug-08 18:58N 44°44' E 037°48'0 0.0
2018-Aug-08 18:28N 44°44' E 037°48'0 0.0
2018-Aug-08 17:58N 44°44' E 037°48'0 0.0
2018-Aug-08 17:25N 44°44' E 037°48'1 1.6
2018-Aug-08 17:00N 44°43' E 037°48'4 7.5
2018-Aug-08 16:30N 44°40' E 037°50'3 5.6
2018-Aug-08 16:00N 44°38' E 037°52'2 3.9
2018-Aug-08 15:30N 44°39' E 037°54'1 1.3
2018-Aug-08 14:58N 44°39' E 037°55'0 0.0
2018-Aug-08 14:28N 44°39' E 037°55'0 0.0
2018-Aug-08 13:58N 44°39' E 037°55'0 0.0
2018-Aug-08 13:28N 44°39' E 037°55'0 0.0
2018-Aug-08 12:58N 44°39' E 037°55'0 0.0
2018-Aug-08 12:28N 44°39' E 037°55'0 0.1
2018-Aug-08 11:58N 44°39' E 037°55'0 0.0
2018-Aug-08 11:28N 44°39' E 037°55'0 0.0
2018-Aug-08 10:58N 44°39' E 037°55'0 0.0
2018-Aug-08 10:28N 44°39' E 037°55'0 0.0
2018-Aug-08 09:58N 44°39' E 037°55'0 0.1
2018-Aug-08 09:28N 44°39' E 037°55'0 0.0
2018-Aug-08 08:58N 44°39' E 037°55'0 0.0
2018-Aug-08 08:28N 44°39' E 037°55'0 0.0
2018-Aug-08 07:58N 44°39' E 037°55'0 0.0
2018-Aug-08 07:28N 44°39' E 037°55'0 0.0
2018-Aug-08 06:58N 44°39' E 037°55'0 0.0
2018-Aug-08 06:28N 44°39' E 037°55'0 0.0
2018-Aug-08 05:58N 44°39' E 037°55'0 0.0
2018-Aug-08 05:28N 44°39' E 037°55'0 0.0
2018-Aug-08 04:58N 44°39' E 037°55'0 0.0
2018-Aug-08 04:28N 44°39' E 037°55'0 0.0
2018-Aug-08 03:58N 44°39' E 037°55'0 0.0
2018-Aug-08 03:28N 44°39' E 037°55'0 0.0
2018-Aug-08 02:58N 44°39' E 037°55'0 0.0
2018-Aug-08 02:28N 44°39' E 037°55'0 0.0
2018-Aug-08 01:58N 44°39' E 037°55'0 0.0
2018-Aug-08 01:28N 44°39' E 037°55'0 0.0
2018-Aug-08 00:58N 44°39' E 037°55'0 0.0
2018-Aug-08 00:25N 44°39' E 037°55'0 0.0
2018-Aug-07 23:55N 44°39' E 037°55'  

Dump ship's entire track history